Irving Johnson — WDB3153 — position and weather

sailwx.info

Track history (hours):
 
Tides and Currents Weather Stations Pressure Air Temp Water Temp Dewpoint Dewpoint Depression Visibility Wind Speed Wind Dir Waves Ship Positions

Irving Johnson (United States)

Ship's website: http://www.lamitopsail.org/

Owner: Los Angeles Maritime Institute, San Pedro, CA. More information available from US FCC via Universal Licensing System and Coast Guard Vessel Documentation Center.

Last reported at 2017-Mar-25 05:24 UTC. Time now 2017-Mar-26 15:00 UTC.
Position N 33°24' W 118°22'.

Type: Ship. MMSI: 369725000.

Date/timePositionNaut miles runAvg speedWind from/ knotsBaromVisibWave heightAir tempDewpointWater temp
2017-Mar-25 05:24N 33°24' W 118°22'0 0.0
2017-Mar-25 01:32N 33°24' W 118°22'4 4.4
2017-Mar-25 00:31N 33°28' W 118°21'10 5.0
2017-Mar-24 22:31N 33°37' W 118°16'4 4.4
2017-Mar-24 21:33N 33°41' W 118°15'3 0.1
2017-Mar-23 21:30N 33°44' W 118°17'0 0.0
2017-Mar-23 20:33N 33°44' W 118°17'  
2017-Mar-20 03:22N 33°44' W 118°17'0 0.0
2017-Mar-20 02:20N 33°44' W 118°17'0 0.0
2017-Mar-20 01:28N 33°44' W 118°17'0 0.0
2017-Mar-20 00:32N 33°44' W 118°17'0 0.0
2017-Mar-19 23:33N 33°44' W 118°17'0 0.0
2017-Mar-19 22:32N 33°44' W 118°17'0 0.0
2017-Mar-19 21:29N 33°44' W 118°17'0 0.0
2017-Mar-19 20:26N 33°44' W 118°17'1 0.5
2017-Mar-19 19:26N 33°45' W 118°17'1 0.0
2017-Mar-18 23:07N 33°44' W 118°17'0 0.0
2017-Mar-18 22:15N 33°44' W 118°17'0 0.0
2017-Mar-18 21:28N 33°44' W 118°17'0 0.0
2017-Mar-17 21:33N 33°44' W 118°17'1 0.6
2017-Mar-17 20:32N 33°43' W 118°16'2 1.6
2017-Mar-17 19:25N 33°43' W 118°14'1 0.7
2017-Mar-17 17:33N 33°43' W 118°16'1 0.6
2017-Mar-17 15:20N 33°44' W 118°17'0 0.0
2017-Mar-17 07:33N 33°44' W 118°17'0 0.0
2017-Mar-17 06:32N 33°44' W 118°17'0 0.0
2017-Mar-17 05:31N 33°44' W 118°17'0 0.0
2017-Mar-16 22:31N 33°44' W 118°17'1 1.2
2017-Mar-16 21:23N 33°43' W 118°16'1 1.7
2017-Mar-16 20:33N 33°44' W 118°17'0 0.5
2017-Mar-16 19:34N 33°44' W 118°17'0 0.0
2017-Mar-16 00:25N 33°44' W 118°17'1 0.2
2017-Mar-15 21:04N 33°43' W 118°16'1 1.3
2017-Mar-15 20:31N 33°44' W 118°17'1 0.4
2017-Mar-15 18:19N 33°43' W 118°16'0 0.2
2017-Mar-15 17:33N 33°43' W 118°16'  
Track history (hours):
 
Tides and Currents Weather Stations Pressure Air Temp Water Temp Dewpoint Dewpoint Depression Visibility Wind Speed Wind Dir Waves Ship Positions

Irving Johnson (United States)

Ship's website: http://www.lamitopsail.org/

Owner: Los Angeles Maritime Institute, San Pedro, CA. More information available from US FCC via Universal Licensing System and Coast Guard Vessel Documentation Center.

Last reported at 2017-Mar-25 05:24 UTC. Time now 2017-Mar-26 15:00 UTC.
Position N 33°24' W 118°22'.

Type: Ship. MMSI: 369725000.

Date/timePositionNaut miles runAvg speedWind from/ knotsBaromVisibWave heightAir tempDewpointWater temp
2017-Mar-25 05:24N 33°24' W 118°22'0 0.0
2017-Mar-25 01:32N 33°24' W 118°22'4 4.4
2017-Mar-25 00:31N 33°28' W 118°21'10 5.0
2017-Mar-24 22:31N 33°37' W 118°16'4 4.4
2017-Mar-24 21:33N 33°41' W 118°15'3 0.1
2017-Mar-23 21:30N 33°44' W 118°17'0 0.0
2017-Mar-23 20:33N 33°44' W 118°17'  
2017-Mar-20 03:22N 33°44' W 118°17'0 0.0
2017-Mar-20 02:20N 33°44' W 118°17'0 0.0
2017-Mar-20 01:28N 33°44' W 118°17'0 0.0
2017-Mar-20 00:32N 33°44' W 118°17'0 0.0
2017-Mar-19 23:33N 33°44' W 118°17'0 0.0
2017-Mar-19 22:32N 33°44' W 118°17'0 0.0
2017-Mar-19 21:29N 33°44' W 118°17'0 0.0
2017-Mar-19 20:26N 33°44' W 118°17'1 0.5
2017-Mar-19 19:26N 33°45' W 118°17'1 0.0
2017-Mar-18 23:07N 33°44' W 118°17'0 0.0
2017-Mar-18 22:15N 33°44' W 118°17'0 0.0
2017-Mar-18 21:28N 33°44' W 118°17'0 0.0
2017-Mar-17 21:33N 33°44' W 118°17'1 0.6
2017-Mar-17 20:32N 33°43' W 118°16'2 1.6
2017-Mar-17 19:25N 33°43' W 118°14'1 0.7
2017-Mar-17 17:33N 33°43' W 118°16'1 0.6
2017-Mar-17 15:20N 33°44' W 118°17'0 0.0
2017-Mar-17 07:33N 33°44' W 118°17'0 0.0
2017-Mar-17 06:32N 33°44' W 118°17'0 0.0
2017-Mar-17 05:31N 33°44' W 118°17'0 0.0
2017-Mar-16 22:31N 33°44' W 118°17'1 1.2
2017-Mar-16 21:23N 33°43' W 118°16'1 1.7
2017-Mar-16 20:33N 33°44' W 118°17'0 0.5
2017-Mar-16 19:34N 33°44' W 118°17'0 0.0
2017-Mar-16 00:25N 33°44' W 118°17'1 0.2
2017-Mar-15 21:04N 33°43' W 118°16'1 1.3
2017-Mar-15 20:31N 33°44' W 118°17'1 0.4
2017-Mar-15 18:19N 33°43' W 118°16'0 0.2
2017-Mar-15 17:33N 33°43' W 118°16'  

Dump ship's entire track history